Columbia — WYR2092 — position and weather

sailwx.info

Track history (hours):
 
Tides and Currents Weather Stations Pressure Air Temp Water Temp Dewpoint Dewpoint Depression Visibility Wind Speed Wind Dir Waves Ship Positions

Columbia

Owner: ALASKA, STATE OF, ANCHORAGE, AK. More information available from US FCC via Universal Licensing System and Coast Guard Vessel Documentation Center.

Last reported at 2015-Jul-03 15:26 UTC. Time now 2015-Jul-03 15:39 UTC.
Position N 48°43' W 122°31'.

Type: Ship. MMSI: 367144000.

Date/timePositionNaut miles runAvg speedWind from/ knotsBaromVisibWave heightAir tempDewpointWater temp
2015-Jul-03 15:26N 48°43' W 122°31'0 0.5
2015-Jul-03 14:34N 48°44' W 122°31'9 8.5
2015-Jul-03 13:33N 48°41' W 122°44'1312.9
2015-Jul-03 12:33N 48°49' W 122°58'1413.5
2015-Jul-03 11:33N 48°58' W 123°14'1313.4
2015-Jul-03 10:33N 49°07' W 123°29'1413.5
2015-Jul-03 09:33N 49°17' W 123°43'1312.8
2015-Jul-03 08:33N 49°23' W 124°00'1313.4
2015-Jul-03 07:34N 49°26' W 124°20'1413.5
2015-Jul-03 06:33N 49°36' W 124°35'1413.6
2015-Jul-03 05:33N 49°45' W 124°50'1414.0
2015-Jul-03 04:33N 49°55' W 125°05'1211.7
2015-Jul-03 03:32N 50°05' W 125°16'4915.0
2015-Jul-03 00:18N 50°30' W 126°22'1315.6
2015-Jul-02 23:27N 50°34' W 126°41'1517.3
2015-Jul-02 22:33N 50°45' W 126°60'1717.3
2015-Jul-02 21:33N 50°54' W 127°23'1716.8
2015-Jul-02 20:33N 51°05' W 127°43'1515.2
2015-Jul-02 19:33N 51°19' W 127°51'2117.5
2015-Jul-02 18:22N 51°40' W 127°54'  
2015-Jun-27 20:33N 51°58' W 127°56'1616.0
2015-Jun-27 19:33N 51°42' W 127°55'1615.8
2015-Jun-27 18:33N 51°26' W 127°51'1515.1
2015-Jun-27 17:33N 51°11' W 127°51'1515.1
2015-Jun-27 16:33N 50°60' W 127°35'1514.8
2015-Jun-27 15:33N 50°52' W 127°16'1715.3
2015-Jun-27 14:27N 50°42' W 126°54'6215.6
2015-Jun-27 10:30N 50°18' W 125°25'1616.5
2015-Jun-27 09:33N 50°04' W 125°15'1615.6
2015-Jun-27 08:33N 49°51' W 124°59'1818.0
2015-Jun-27 07:33N 49°39' W 124°40'1818.1
2015-Jun-27 06:34N 49°26' W 124°20'1818.4
2015-Jun-27 05:34N 49°22' W 123°52'1817.8
2015-Jun-27 04:34N 49°11' W 123°31'1818.0
2015-Jun-27 03:33N 48°58' W 123°11'1818.1
2015-Jun-27 02:34N 48°47' W 122°50'1212.4
2015-Jun-27 01:33N 48°41' W 122°33'2 2.3
2015-Jun-27 00:30N 48°43' W 122°31'0 0.0
2015-Jun-26 22:30N 48°43' W 122°31'0 0.0
2015-Jun-26 21:30N 48°43' W 122°31'0 0.0
2015-Jun-26 20:30N 48°43' W 122°31'0 0.0
2015-Jun-26 16:18N 48°43' W 122°31'0 0.0
2015-Jun-26 15:30N 48°43' W 122°31'1 0.6
2015-Jun-26 14:34N 48°43' W 122°32'8 8.1
2015-Jun-26 13:34N 48°40' W 122°43'1515.5
2015-Jun-26 12:34N 48°50' W 123°00'1716.6
2015-Jun-26 11:33N 49°01' W 123°20'1616.0
2015-Jun-26 10:33N 49°13' W 123°36'1515.4
2015-Jun-26 09:33N 49°22' W 123°55'1615.8
2015-Jun-26 08:33N 49°26' W 124°19'1615.5
2015-Jun-26 07:33N 49°36' W 124°36'1616.0
2015-Jun-26 06:33N 49°47' W 124°54'1615.8
2015-Jun-26 05:33N 49°59' W 125°11'1413.5
2015-Jun-26 04:31N 50°11' W 125°22'6114.5
2015-Jun-26 00:20N 50°38' W 126°47'1316.9
2015-Jun-25 23:33N 50°46' W 127°03'1716.6
2015-Jun-25 22:33N 50°55' W 127°25'1615.7
2015-Jun-25 21:33N 51°05' W 127°44'1615.3
2015-Jun-25 20:32N 51°20' W 127°51'  
Track history (hours):
 
Tides and Currents Weather Stations Pressure Air Temp Water Temp Dewpoint Dewpoint Depression Visibility Wind Speed Wind Dir Waves Ship Positions

Columbia

Owner: ALASKA, STATE OF, ANCHORAGE, AK. More information available from US FCC via Universal Licensing System and Coast Guard Vessel Documentation Center.

Last reported at 2015-Jul-03 15:26 UTC. Time now 2015-Jul-03 15:39 UTC.
Position N 48°43' W 122°31'.

Type: Ship. MMSI: 367144000.

Date/timePositionNaut miles runAvg speedWind from/ knotsBaromVisibWave heightAir tempDewpointWater temp
2015-Jul-03 15:26N 48°43' W 122°31'0 0.5
2015-Jul-03 14:34N 48°44' W 122°31'9 8.5
2015-Jul-03 13:33N 48°41' W 122°44'1312.9
2015-Jul-03 12:33N 48°49' W 122°58'1413.5
2015-Jul-03 11:33N 48°58' W 123°14'1313.4
2015-Jul-03 10:33N 49°07' W 123°29'1413.5
2015-Jul-03 09:33N 49°17' W 123°43'1312.8
2015-Jul-03 08:33N 49°23' W 124°00'1313.4
2015-Jul-03 07:34N 49°26' W 124°20'1413.5
2015-Jul-03 06:33N 49°36' W 124°35'1413.6
2015-Jul-03 05:33N 49°45' W 124°50'1414.0
2015-Jul-03 04:33N 49°55' W 125°05'1211.7
2015-Jul-03 03:32N 50°05' W 125°16'4915.0
2015-Jul-03 00:18N 50°30' W 126°22'1315.6
2015-Jul-02 23:27N 50°34' W 126°41'1517.3
2015-Jul-02 22:33N 50°45' W 126°60'1717.3
2015-Jul-02 21:33N 50°54' W 127°23'1716.8
2015-Jul-02 20:33N 51°05' W 127°43'1515.2
2015-Jul-02 19:33N 51°19' W 127°51'2117.5
2015-Jul-02 18:22N 51°40' W 127°54'  
2015-Jun-27 20:33N 51°58' W 127°56'1616.0
2015-Jun-27 19:33N 51°42' W 127°55'1615.8
2015-Jun-27 18:33N 51°26' W 127°51'1515.1
2015-Jun-27 17:33N 51°11' W 127°51'1515.1
2015-Jun-27 16:33N 50°60' W 127°35'1514.8
2015-Jun-27 15:33N 50°52' W 127°16'1715.3
2015-Jun-27 14:27N 50°42' W 126°54'6215.6
2015-Jun-27 10:30N 50°18' W 125°25'1616.5
2015-Jun-27 09:33N 50°04' W 125°15'1615.6
2015-Jun-27 08:33N 49°51' W 124°59'1818.0
2015-Jun-27 07:33N 49°39' W 124°40'1818.1
2015-Jun-27 06:34N 49°26' W 124°20'1818.4
2015-Jun-27 05:34N 49°22' W 123°52'1817.8
2015-Jun-27 04:34N 49°11' W 123°31'1818.0
2015-Jun-27 03:33N 48°58' W 123°11'1818.1
2015-Jun-27 02:34N 48°47' W 122°50'1212.4
2015-Jun-27 01:33N 48°41' W 122°33'2 2.3
2015-Jun-27 00:30N 48°43' W 122°31'0 0.0
2015-Jun-26 22:30N 48°43' W 122°31'0 0.0
2015-Jun-26 21:30N 48°43' W 122°31'0 0.0
2015-Jun-26 20:30N 48°43' W 122°31'0 0.0
2015-Jun-26 16:18N 48°43' W 122°31'0 0.0
2015-Jun-26 15:30N 48°43' W 122°31'1 0.6
2015-Jun-26 14:34N 48°43' W 122°32'8 8.1
2015-Jun-26 13:34N 48°40' W 122°43'1515.5
2015-Jun-26 12:34N 48°50' W 123°00'1716.6
2015-Jun-26 11:33N 49°01' W 123°20'1616.0
2015-Jun-26 10:33N 49°13' W 123°36'1515.4
2015-Jun-26 09:33N 49°22' W 123°55'1615.8
2015-Jun-26 08:33N 49°26' W 124°19'1615.5
2015-Jun-26 07:33N 49°36' W 124°36'1616.0
2015-Jun-26 06:33N 49°47' W 124°54'1615.8
2015-Jun-26 05:33N 49°59' W 125°11'1413.5
2015-Jun-26 04:31N 50°11' W 125°22'6114.5
2015-Jun-26 00:20N 50°38' W 126°47'1316.9
2015-Jun-25 23:33N 50°46' W 127°03'1716.6
2015-Jun-25 22:33N 50°55' W 127°25'1615.7
2015-Jun-25 21:33N 51°05' W 127°44'1615.3
2015-Jun-25 20:32N 51°20' W 127°51'  

Dump ship's entire track history